sensor_id;sensor_type;location;lat;lon;timestamp;P1;durP1;ratioP1;P2;durP2;ratioP2
3267;SDS011;1646;52.450;13.326;2023-05-24T00:00:05;21.90;;;4.60;;
3267;SDS011;1646;52.450;13.326;2023-05-24T00:05:08;16.43;;;3.33;;
3267;SDS011;1646;52.450;13.326;2023-05-24T00:10:08;20.30;;;3.83;;
3267;SDS011;1646;52.450;13.326;2023-05-24T00:15:09;15.50;;;4.00;;
3267;SDS011;1646;52.450;13.326;2023-05-24T00:20:08;18.63;;;3.73;;
3267;SDS011;1646;52.450;13.326;2023-05-24T00:25:08;13.00;;;3.93;;
3267;SDS011;1646;52.450;13.326;2023-05-24T00:30:06;9.47;;;3.60;;
3267;SDS011;1646;52.450;13.326;2023-05-24T00:35:07;14.70;;;3.57;;
3267;SDS011;1646;52.450;13.326;2023-05-24T00:40:05;10.50;;;3.70;;
3267;SDS011;1646;52.450;13.326;2023-05-24T00:45:05;12.23;;;3.50;;
3267;SDS011;1646;52.450;13.326;2023-05-24T00:50:06;14.03;;;3.63;;
3267;SDS011;1646;52.450;13.326;2023-05-24T00:55:07;21.60;;;5.20;;
3267;SDS011;1646;52.450;13.326;2023-05-24T01:00:06;11.53;;;4.23;;
3267;SDS011;1646;52.450;13.326;2023-05-24T01:05:08;12.40;;;4.10;;
3267;SDS011;1646;52.450;13.326;2023-05-24T01:10:12;14.77;;;4.03;;
3267;SDS011;1646;52.450;13.326;2023-05-24T01:15:16;11.33;;;3.27;;
3267;SDS011;1646;52.450;13.326;2023-05-24T01:20:20;25.50;;;5.30;;
3267;SDS011;1646;52.450;13.326;2023-05-24T01:25:25;23.30;;;4.20;;
3267;SDS011;1646;52.450;13.326;2023-05-24T01:30:38;13.80;;;3.37;;
3267;SDS011;1646;52.450;13.326;2023-05-24T01:35:38;18.20;;;4.40;;
3267;SDS011;1646;52.450;13.326;2023-05-24T01:40:38;6.90;;;3.03;;
3267;SDS011;1646;52.450;13.326;2023-05-24T01:45:39;25.20;;;4.30;;
3267;SDS011;1646;52.450;13.326;2023-05-24T01:50:45;19.13;;;4.70;;
3267;SDS011;1646;52.450;13.326;2023-05-24T01:55:47;15.93;;;3.77;;
3267;SDS011;1646;52.450;13.326;2023-05-24T02:00:48;14.63;;;3.60;;
3267;SDS011;1646;52.450;13.326;2023-05-24T02:05:48;24.40;;;4.17;;
3267;SDS011;1646;52.450;13.326;2023-05-24T02:10:47;13.23;;;3.33;;
3267;SDS011;1646;52.450;13.326;2023-05-24T02:15:46;11.60;;;3.80;;
3267;SDS011;1646;52.450;13.326;2023-05-24T02:20:49;8.93;;;3.47;;
3267;SDS011;1646;52.450;13.326;2023-05-24T02:25:47;18.20;;;4.10;;
3267;SDS011;1646;52.450;13.326;2023-05-24T02:30:46;18.90;;;4.43;;
3267;SDS011;1646;52.450;13.326;2023-05-24T02:35:45;15.90;;;4.57;;
3267;SDS011;1646;52.450;13.326;2023-05-24T02:40:44;11.47;;;4.10;;
3267;SDS011;1646;52.450;13.326;2023-05-24T02:45:42;12.90;;;3.47;;
3267;SDS011;1646;52.450;13.326;2023-05-24T02:50:40;15.47;;;3.80;;
3267;SDS011;1646;52.450;13.326;2023-05-24T02:55:40;17.07;;;4.87;;
3267;SDS011;1646;52.450;13.326;2023-05-24T03:00:41;11.07;;;3.67;;
3267;SDS011;1646;52.450;13.326;2023-05-24T03:05:39;14.83;;;3.80;;
3267;SDS011;1646;52.450;13.326;2023-05-24T03:10:38;17.33;;;3.37;;
3267;SDS011;1646;52.450;13.326;2023-05-24T03:15:38;13.13;;;3.30;;
3267;SDS011;1646;52.450;13.326;2023-05-24T03:20:38;13.67;;;3.73;;
3267;SDS011;1646;52.450;13.326;2023-05-24T03:25:37;16.23;;;3.57;;
3267;SDS011;1646;52.450;13.326;2023-05-24T03:30:35;14.30;;;3.53;;
3267;SDS011;1646;52.450;13.326;2023-05-24T03:35:35;11.87;;;3.30;;
3267;SDS011;1646;52.450;13.326;2023-05-24T03:40:34;24.23;;;5.13;;
3267;SDS011;1646;52.450;13.326;2023-05-24T03:45:41;16.20;;;3.70;;
3267;SDS011;1646;52.450;13.326;2023-05-24T03:50:40;18.57;;;5.00;;
3267;SDS011;1646;52.450;13.326;2023-05-24T03:55:39;17.23;;;3.97;;
3267;SDS011;1646;52.450;13.326;2023-05-24T04:00:40;16.03;;;3.93;;
3267;SDS011;1646;52.450;13.326;2023-05-24T04:05:40;13.93;;;3.50;;
3267;SDS011;1646;52.450;13.326;2023-05-24T04:10:39;23.30;;;4.80;;
3267;SDS011;1646;52.450;13.326;2023-05-24T04:15:39;11.87;;;4.00;;
3267;SDS011;1646;52.450;13.326;2023-05-24T04:20:41;16.53;;;3.60;;
3267;SDS011;1646;52.450;13.326;2023-05-24T04:25:39;13.07;;;4.67;;
3267;SDS011;1646;52.450;13.326;2023-05-24T04:30:38;19.53;;;4.80;;
3267;SDS011;1646;52.450;13.326;2023-05-24T04:35:37;22.70;;;4.73;;
3267;SDS011;1646;52.450;13.326;2023-05-24T04:40:37;19.47;;;4.50;;
3267;SDS011;1646;52.450;13.326;2023-05-24T04:45:36;15.03;;;5.43;;
3267;SDS011;1646;52.450;13.326;2023-05-24T04:50:34;24.60;;;5.00;;
3267;SDS011;1646;52.450;13.326;2023-05-24T04:55:33;11.97;;;3.80;;
3267;SDS011;1646;52.450;13.326;2023-05-24T05:00:32;19.00;;;5.13;;
3267;SDS011;1646;52.450;13.326;2023-05-24T05:05:31;19.97;;;4.50;;
3267;SDS011;1646;52.450;13.326;2023-05-24T05:10:29;19.47;;;4.60;;
3267;SDS011;1646;52.450;13.326;2023-05-24T05:15:27;24.60;;;4.87;;
3267;SDS011;1646;52.450;13.326;2023-05-24T05:20:27;20.20;;;4.60;;
3267;SDS011;1646;52.450;13.326;2023-05-24T05:25:25;19.03;;;5.50;;
3267;SDS011;1646;52.450;13.326;2023-05-24T05:30:24;17.23;;;4.90;;
3267;SDS011;1646;52.450;13.326;2023-05-24T05:35:22;17.67;;;4.57;;
3267;SDS011;1646;52.450;13.326;2023-05-24T05:40:21;23.00;;;5.57;;
3267;SDS011;1646;52.450;13.326;2023-05-24T05:45:20;25.03;;;5.53;;
3267;SDS011;1646;52.450;13.326;2023-05-24T05:50:18;21.97;;;5.50;;
3267;SDS011;1646;52.450;13.326;2023-05-24T05:55:16;18.50;;;4.53;;
3267;SDS011;1646;52.450;13.326;2023-05-24T06:00:16;26.77;;;5.10;;
3267;SDS011;1646;52.450;13.326;2023-05-24T06:05:17;23.17;;;5.50;;
3267;SDS011;1646;52.450;13.326;2023-05-24T06:10:15;20.07;;;5.70;;
3267;SDS011;1646;52.450;13.326;2023-05-24T06:15:14;15.53;;;4.80;;
3267;SDS011;1646;52.450;13.326;2023-05-24T06:20:13;25.57;;;5.23;;
3267;SDS011;1646;52.450;13.326;2023-05-24T06:25:12;23.57;;;5.70;;
3267;SDS011;1646;52.450;13.326;2023-05-24T06:30:16;16.87;;;5.53;;
3267;SDS011;1646;52.450;13.326;2023-05-24T06:35:14;23.53;;;5.50;;
3267;SDS011;1646;52.450;13.326;2023-05-24T06:40:13;25.83;;;5.57;;
3267;SDS011;1646;52.450;13.326;2023-05-24T06:45:11;22.03;;;5.80;;
3267;SDS011;1646;52.450;13.326;2023-05-24T06:50:12;20.30;;;5.60;;
3267;SDS011;1646;52.450;13.326;2023-05-24T06:55:10;20.93;;;5.00;;
3267;SDS011;1646;52.450;13.326;2023-05-24T07:00:08;20.40;;;5.80;;
3267;SDS011;1646;52.450;13.326;2023-05-24T07:05:08;21.50;;;5.73;;
3267;SDS011;1646;52.450;13.326;2023-05-24T07:10:09;23.33;;;6.60;;
3267;SDS011;1646;52.450;13.326;2023-05-24T07:15:08;18.30;;;5.60;;
3267;SDS011;1646;52.450;13.326;2023-05-24T07:20:07;34.30;;;6.57;;
3267;SDS011;1646;52.450;13.326;2023-05-24T07:25:07;25.47;;;5.40;;
3267;SDS011;1646;52.450;13.326;2023-05-24T07:30:07;19.10;;;5.40;;
3267;SDS011;1646;52.450;13.326;2023-05-24T07:35:26;29.30;;;6.13;;
3267;SDS011;1646;52.450;13.326;2023-05-24T07:40:25;22.80;;;5.97;;
3267;SDS011;1646;52.450;13.326;2023-05-24T07:45:25;16.00;;;5.17;;
3267;SDS011;1646;52.450;13.326;2023-05-24T07:50:23;29.13;;;7.80;;
3267;SDS011;1646;52.450;13.326;2023-05-24T07:55:22;20.50;;;5.90;;
3267;SDS011;1646;52.450;13.326;2023-05-24T08:00:20;24.07;;;6.03;;
3267;SDS011;1646;52.450;13.326;2023-05-24T08:05:20;22.30;;;5.60;;
3267;SDS011;1646;52.450;13.326;2023-05-24T08:10:18;24.57;;;6.20;;
3267;SDS011;1646;52.450;13.326;2023-05-24T08:15:17;25.27;;;7.17;;
3267;SDS011;1646;52.450;13.326;2023-05-24T08:20:15;23.13;;;5.77;;
3267;SDS011;1646;52.450;13.326;2023-05-24T08:25:16;29.97;;;6.47;;
3267;SDS011;1646;52.450;13.326;2023-05-24T08:30:14;21.10;;;6.00;;
3267;SDS011;1646;52.450;13.326;2023-05-24T08:35:13;20.60;;;6.50;;
3267;SDS011;1646;52.450;13.326;2023-05-24T08:40:15;27.57;;;5.97;;
3267;SDS011;1646;52.450;13.326;2023-05-24T08:45:14;20.63;;;5.93;;
3267;SDS011;1646;52.450;13.326;2023-05-24T08:50:13;23.37;;;6.77;;
3267;SDS011;1646;52.450;13.326;2023-05-24T08:55:12;19.33;;;5.40;;
3267;SDS011;1646;52.450;13.326;2023-05-24T09:00:13;22.47;;;5.93;;
3267;SDS011;1646;52.450;13.326;2023-05-24T09:05:13;18.30;;;5.10;;
3267;SDS011;1646;52.450;13.326;2023-05-24T09:10:12;19.03;;;5.13;;
3267;SDS011;1646;52.450;13.326;2023-05-24T09:15:13;34.37;;;6.77;;
3267;SDS011;1646;52.450;13.326;2023-05-24T09:20:11;15.43;;;6.30;;
3267;SDS011;1646;52.450;13.326;2023-05-24T09:25:12;15.50;;;5.30;;
3267;SDS011;1646;52.450;13.326;2023-05-24T09:30:13;12.27;;;4.93;;
3267;SDS011;1646;52.450;13.326;2023-05-24T09:35:12;18.17;;;4.90;;
3267;SDS011;1646;52.450;13.326;2023-05-24T09:40:12;20.37;;;5.30;;
3267;SDS011;1646;52.450;13.326;2023-05-24T09:45:17;15.73;;;4.50;;
3267;SDS011;1646;52.450;13.326;2023-05-24T09:50:15;13.20;;;4.13;;
3267;SDS011;1646;52.450;13.326;2023-05-24T09:55:14;11.77;;;4.07;;
3267;SDS011;1646;52.450;13.326;2023-05-24T10:00:14;16.43;;;5.00;;
3267;SDS011;1646;52.450;13.326;2023-05-24T10:05:17;12.40;;;4.13;;
3267;SDS011;1646;52.450;13.326;2023-05-24T10:10:16;13.90;;;3.60;;
3267;SDS011;1646;52.450;13.326;2023-05-24T10:15:16;18.93;;;4.40;;
3267;SDS011;1646;52.450;13.326;2023-05-24T10:20:15;14.43;;;3.60;;
3267;SDS011;1646;52.450;13.326;2023-05-24T10:25:16;18.80;;;4.30;;
3267;SDS011;1646;52.450;13.326;2023-05-24T10:30:21;12.97;;;3.30;;
3267;SDS011;1646;52.450;13.326;2023-05-24T10:35:27;12.60;;;4.10;;
3267;SDS011;1646;52.450;13.326;2023-05-24T10:40:27;15.13;;;4.10;;
3267;SDS011;1646;52.450;13.326;2023-05-24T10:45:30;13.37;;;4.00;;
3267;SDS011;1646;52.450;13.326;2023-05-24T10:50:31;15.60;;;3.97;;
3267;SDS011;1646;52.450;13.326;2023-05-24T10:55:29;14.73;;;3.73;;
3267;SDS011;1646;52.450;13.326;2023-05-24T11:00:33;9.17;;;3.10;;
3267;SDS011;1646;52.450;13.326;2023-05-24T11:05:48;11.03;;;3.77;;
3267;SDS011;1646;52.450;13.326;2023-05-24T11:10:48;12.87;;;3.37;;
3267;SDS011;1646;52.450;13.326;2023-05-24T11:15:51;9.27;;;3.07;;
3267;SDS011;1646;52.450;13.326;2023-05-24T11:20:50;7.03;;;2.93;;
3267;SDS011;1646;52.450;13.326;2023-05-24T11:25:48;11.73;;;4.20;;
3267;SDS011;1646;52.450;13.326;2023-05-24T11:30:47;9.73;;;2.77;;
3267;SDS011;1646;52.450;13.326;2023-05-24T11:35:47;10.90;;;3.20;;
3267;SDS011;1646;52.450;13.326;2023-05-24T11:40:48;18.40;;;3.47;;
3267;SDS011;1646;52.450;13.326;2023-05-24T11:45:47;5.90;;;2.53;;
3267;SDS011;1646;52.450;13.326;2023-05-24T11:50:47;6.27;;;2.60;;
3267;SDS011;1646;52.450;13.326;2023-05-24T11:55:46;7.10;;;2.63;;
3267;SDS011;1646;52.450;13.326;2023-05-24T12:00:45;8.57;;;2.73;;
3267;SDS011;1646;52.450;13.326;2023-05-24T12:05:44;8.23;;;2.80;;
3267;SDS011;1646;52.450;13.326;2023-05-24T12:10:44;11.70;;;3.00;;
3267;SDS011;1646;52.450;13.326;2023-05-24T12:15:47;14.70;;;2.90;;
3267;SDS011;1646;52.450;13.326;2023-05-24T12:20:51;5.57;;;3.20;;
3267;SDS011;1646;52.450;13.326;2023-05-24T12:25:56;8.00;;;2.90;;
3267;SDS011;1646;52.450;13.326;2023-05-24T12:30:54;10.47;;;2.83;;
3267;SDS011;1646;52.450;13.326;2023-05-24T12:35:54;8.60;;;2.57;;
3267;SDS011;1646;52.450;13.326;2023-05-24T12:40:54;11.13;;;3.30;;
3267;SDS011;1646;52.450;13.326;2023-05-24T12:46:08;9.20;;;3.00;;
3267;SDS011;1646;52.450;13.326;2023-05-24T12:51:07;11.47;;;2.97;;
3267;SDS011;1646;52.450;13.326;2023-05-24T12:56:07;5.80;;;3.03;;
3267;SDS011;1646;52.450;13.326;2023-05-24T13:01:05;7.57;;;2.93;;
3267;SDS011;1646;52.450;13.326;2023-05-24T13:06:03;8.50;;;3.03;;
3267;SDS011;1646;52.450;13.326;2023-05-24T13:11:02;11.37;;;3.20;;
3267;SDS011;1646;52.450;13.326;2023-05-24T13:16:02;6.00;;;3.07;;
3267;SDS011;1646;52.450;13.326;2023-05-24T13:21:02;7.03;;;3.03;;
3267;SDS011;1646;52.450;13.326;2023-05-24T13:26:01;4.83;;;2.53;;
3267;SDS011;1646;52.450;13.326;2023-05-24T13:30:59;7.70;;;2.67;;
3267;SDS011;1646;52.450;13.326;2023-05-24T13:35:59;13.80;;;3.53;;
3267;SDS011;1646;52.450;13.326;2023-05-24T13:40:58;9.77;;;4.17;;
3267;SDS011;1646;52.450;13.326;2023-05-24T13:45:56;17.30;;;3.13;;
3267;SDS011;1646;52.450;13.326;2023-05-24T13:50:55;9.43;;;3.60;;
3267;SDS011;1646;52.450;13.326;2023-05-24T13:55:54;9.63;;;3.20;;
3267;SDS011;1646;52.450;13.326;2023-05-24T14:00:53;7.50;;;3.13;;
3267;SDS011;1646;52.450;13.326;2023-05-24T14:05:51;11.13;;;3.73;;
3267;SDS011;1646;52.450;13.326;2023-05-24T14:10:50;6.30;;;3.00;;
3267;SDS011;1646;52.450;13.326;2023-05-24T14:15:50;8.87;;;3.07;;
3267;SDS011;1646;52.450;13.326;2023-05-24T14:20:49;6.53;;;3.27;;
3267;SDS011;1646;52.450;13.326;2023-05-24T14:25:47;7.27;;;2.80;;
3267;SDS011;1646;52.450;13.326;2023-05-24T14:30:47;9.10;;;3.70;;
3267;SDS011;1646;52.450;13.326;2023-05-24T14:35:47;6.40;;;2.70;;
3267;SDS011;1646;52.450;13.326;2023-05-24T14:40:46;6.90;;;3.33;;
3267;SDS011;1646;52.450;13.326;2023-05-24T14:45:44;10.63;;;3.47;;
3267;SDS011;1646;52.450;13.326;2023-05-24T14:50:43;6.10;;;2.80;;
3267;SDS011;1646;52.450;13.326;2023-05-24T14:55:43;11.83;;;3.80;;
3267;SDS011;1646;52.450;13.326;2023-05-24T15:00:42;5.43;;;2.80;;
3267;SDS011;1646;52.450;13.326;2023-05-24T15:05:40;8.83;;;3.70;;
3267;SDS011;1646;52.450;13.326;2023-05-24T15:10:39;5.80;;;3.00;;
3267;SDS011;1646;52.450;13.326;2023-05-24T15:15:42;8.27;;;3.27;;
3267;SDS011;1646;52.450;13.326;2023-05-24T15:20:40;8.23;;;3.13;;
3267;SDS011;1646;52.450;13.326;2023-05-24T15:25:39;6.77;;;2.90;;
3267;SDS011;1646;52.450;13.326;2023-05-24T15:30:38;9.40;;;3.23;;
3267;SDS011;1646;52.450;13.326;2023-05-24T15:35:41;6.60;;;3.23;;
3267;SDS011;1646;52.450;13.326;2023-05-24T15:40:39;7.23;;;2.80;;
3267;SDS011;1646;52.450;13.326;2023-05-24T15:45:38;7.67;;;3.20;;
3267;SDS011;1646;52.450;13.326;2023-05-24T15:50:36;10.00;;;3.20;;
3267;SDS011;1646;52.450;13.326;2023-05-24T15:55:57;9.47;;;3.50;;
3267;SDS011;1646;52.450;13.326;2023-05-24T16:00:55;6.83;;;3.50;;
3267;SDS011;1646;52.450;13.326;2023-05-24T16:05:53;11.00;;;2.93;;
3267;SDS011;1646;52.450;13.326;2023-05-24T16:10:51;13.17;;;3.93;;
3267;SDS011;1646;52.450;13.326;2023-05-24T16:15:51;10.40;;;4.00;;
3267;SDS011;1646;52.450;13.326;2023-05-24T16:20:50;9.53;;;3.40;;
3267;SDS011;1646;52.450;13.326;2023-05-24T16:25:48;13.03;;;3.30;;
3267;SDS011;1646;52.450;13.326;2023-05-24T16:30:46;6.70;;;3.00;;
3267;SDS011;1646;52.450;13.326;2023-05-24T16:35:46;5.07;;;3.10;;
3267;SDS011;1646;52.450;13.326;2023-05-24T16:40:50;8.10;;;3.40;;
3267;SDS011;1646;52.450;13.326;2023-05-24T16:45:49;8.80;;;3.40;;
3267;SDS011;1646;52.450;13.326;2023-05-24T16:50:49;7.83;;;3.00;;
3267;SDS011;1646;52.450;13.326;2023-05-24T16:55:49;7.90;;;3.60;;
3267;SDS011;1646;52.450;13.326;2023-05-24T17:00:49;6.97;;;2.70;;
3267;SDS011;1646;52.450;13.326;2023-05-24T17:05:51;8.20;;;3.57;;
3267;SDS011;1646;52.450;13.326;2023-05-24T17:10:49;7.80;;;4.00;;
3267;SDS011;1646;52.450;13.326;2023-05-24T17:15:52;8.40;;;3.20;;
3267;SDS011;1646;52.450;13.326;2023-05-24T17:20:52;8.40;;;3.23;;
3267;SDS011;1646;52.450;13.326;2023-05-24T17:25:50;13.37;;;3.80;;
3267;SDS011;1646;52.450;13.326;2023-05-24T17:30:50;8.73;;;3.63;;
3267;SDS011;1646;52.450;13.326;2023-05-24T17:35:48;5.20;;;3.00;;
3267;SDS011;1646;52.450;13.326;2023-05-24T17:40:48;9.03;;;3.50;;
3267;SDS011;1646;52.450;13.326;2023-05-24T17:45:51;10.40;;;3.30;;
3267;SDS011;1646;52.450;13.326;2023-05-24T17:50:55;15.60;;;4.00;;
3267;SDS011;1646;52.450;13.326;2023-05-24T17:55:55;13.70;;;3.40;;
3267;SDS011;1646;52.450;13.326;2023-05-24T18:00:54;10.10;;;3.40;;
3267;SDS011;1646;52.450;13.326;2023-05-24T18:05:52;11.83;;;3.73;;
3267;SDS011;1646;52.450;13.326;2023-05-24T18:10:50;8.13;;;3.00;;
3267;SDS011;1646;52.450;13.326;2023-05-24T18:15:50;11.87;;;3.40;;
3267;SDS011;1646;52.450;13.326;2023-05-24T18:20:48;8.80;;;3.27;;
3267;SDS011;1646;52.450;13.326;2023-05-24T18:25:47;8.47;;;3.50;;
3267;SDS011;1646;52.450;13.326;2023-05-24T18:30:57;9.50;;;3.80;;
3267;SDS011;1646;52.450;13.326;2023-05-24T18:35:55;12.67;;;3.63;;
3267;SDS011;1646;52.450;13.326;2023-05-24T18:40:53;9.90;;;3.77;;
3267;SDS011;1646;52.450;13.326;2023-05-24T18:45:51;14.30;;;4.07;;
3267;SDS011;1646;52.450;13.326;2023-05-24T18:50:52;5.77;;;3.13;;
3267;SDS011;1646;52.450;13.326;2023-05-24T18:55:50;10.90;;;3.60;;
3267;SDS011;1646;52.450;13.326;2023-05-24T19:00:49;10.20;;;4.40;;
3267;SDS011;1646;52.450;13.326;2023-05-24T19:05:47;8.93;;;3.60;;
3267;SDS011;1646;52.450;13.326;2023-05-24T19:10:47;7.87;;;3.40;;
3267;SDS011;1646;52.450;13.326;2023-05-24T19:15:45;12.30;;;4.40;;
3267;SDS011;1646;52.450;13.326;2023-05-24T19:20:43;16.77;;;4.47;;
3267;SDS011;1646;52.450;13.326;2023-05-24T19:25:42;12.13;;;4.20;;
3267;SDS011;1646;52.450;13.326;2023-05-24T19:30:44;9.30;;;4.00;;
3267;SDS011;1646;52.450;13.326;2023-05-24T19:35:43;13.60;;;4.63;;
3267;SDS011;1646;52.450;13.326;2023-05-24T19:40:41;8.03;;;4.50;;
3267;SDS011;1646;52.450;13.326;2023-05-24T19:45:39;10.77;;;4.23;;
3267;SDS011;1646;52.450;13.326;2023-05-24T19:50:39;11.43;;;4.53;;
3267;SDS011;1646;52.450;13.326;2023-05-24T19:55:37;10.80;;;4.03;;
3267;SDS011;1646;52.450;13.326;2023-05-24T20:00:36;12.57;;;4.70;;
3267;SDS011;1646;52.450;13.326;2023-05-24T20:05:34;12.53;;;4.30;;
3267;SDS011;1646;52.450;13.326;2023-05-24T20:10:34;8.80;;;4.43;;
3267;SDS011;1646;52.450;13.326;2023-05-24T20:15:34;11.03;;;4.90;;
3267;SDS011;1646;52.450;13.326;2023-05-24T20:20:32;15.20;;;4.80;;
3267;SDS011;1646;52.450;13.326;2023-05-24T20:25:30;12.20;;;4.50;;
3267;SDS011;1646;52.450;13.326;2023-05-24T20:30:30;16.80;;;5.07;;
3267;SDS011;1646;52.450;13.326;2023-05-24T20:35:29;10.40;;;5.17;;
3267;SDS011;1646;52.450;13.326;2023-05-24T20:40:28;11.30;;;5.27;;
3267;SDS011;1646;52.450;13.326;2023-05-24T20:45:26;12.83;;;5.20;;
3267;SDS011;1646;52.450;13.326;2023-05-24T20:50:26;9.37;;;4.93;;
3267;SDS011;1646;52.450;13.326;2023-05-24T20:55:24;11.57;;;4.30;;
3267;SDS011;1646;52.450;13.326;2023-05-24T21:00:22;10.97;;;4.97;;
3267;SDS011;1646;52.450;13.326;2023-05-24T21:05:20;19.70;;;5.67;;
3267;SDS011;1646;52.450;13.326;2023-05-24T21:10:20;18.43;;;5.83;;
3267;SDS011;1646;52.450;13.326;2023-05-24T21:15:18;15.80;;;5.73;;
3267;SDS011;1646;52.450;13.326;2023-05-24T21:20:16;13.40;;;5.03;;
3267;SDS011;1646;52.450;13.326;2023-05-24T21:25:15;12.53;;;5.50;;
3267;SDS011;1646;52.450;13.326;2023-05-24T21:30:15;12.10;;;5.37;;
3267;SDS011;1646;52.450;13.326;2023-05-24T21:35:13;10.87;;;5.80;;
3267;SDS011;1646;52.450;13.326;2023-05-24T21:40:12;13.47;;;6.13;;
3267;SDS011;1646;52.450;13.326;2023-05-24T21:45:10;13.57;;;5.60;;
3267;SDS011;1646;52.450;13.326;2023-05-24T21:50:10;15.53;;;6.23;;
3267;SDS011;1646;52.450;13.326;2023-05-24T21:55:08;15.77;;;6.40;;
3267;SDS011;1646;52.450;13.326;2023-05-24T22:00:07;15.70;;;6.67;;
3267;SDS011;1646;52.450;13.326;2023-05-24T22:05:07;13.63;;;6.10;;
3267;SDS011;1646;52.450;13.326;2023-05-24T22:10:07;13.60;;;5.93;;
3267;SDS011;1646;52.450;13.326;2023-05-24T22:15:07;13.07;;;6.10;;
3267;SDS011;1646;52.450;13.326;2023-05-24T22:20:06;12.30;;;6.00;;
3267;SDS011;1646;52.450;13.326;2023-05-24T22:25:08;14.63;;;6.93;;
3267;SDS011;1646;52.450;13.326;2023-05-24T22:30:10;22.80;;;6.23;;
3267;SDS011;1646;52.450;13.326;2023-05-24T22:35:09;11.03;;;6.40;;
3267;SDS011;1646;52.450;13.326;2023-05-24T22:40:09;15.73;;;6.47;;
3267;SDS011;1646;52.450;13.326;2023-05-24T22:45:09;20.93;;;6.50;;
3267;SDS011;1646;52.450;13.326;2023-05-24T22:50:07;12.93;;;5.20;;
3267;SDS011;1646;52.450;13.326;2023-05-24T22:55:06;10.10;;;6.73;;
3267;SDS011;1646;52.450;13.326;2023-05-24T23:00:07;15.97;;;5.53;;
3267;SDS011;1646;52.450;13.326;2023-05-24T23:05:07;16.43;;;5.80;;
3267;SDS011;1646;52.450;13.326;2023-05-24T23:10:07;13.70;;;6.23;;
3267;SDS011;1646;52.450;13.326;2023-05-24T23:15:07;9.30;;;5.60;;
3267;SDS011;1646;52.450;13.326;2023-05-24T23:20:07;12.40;;;6.30;;
3267;SDS011;1646;52.450;13.326;2023-05-24T23:25:07;10.30;;;5.40;;
3267;SDS011;1646;52.450;13.326;2023-05-24T23:30:07;19.23;;;6.17;;
3267;SDS011;1646;52.450;13.326;2023-05-24T23:35:06;13.90;;;6.20;;
3267;SDS011;1646;52.450;13.326;2023-05-24T23:40:05;19.17;;;6.27;;
3267;SDS011;1646;52.450;13.326;2023-05-24T23:45:06;13.60;;;6.60;;
3267;SDS011;1646;52.450;13.326;2023-05-24T23:50:05;12.80;;;7.00;;
3267;SDS011;1646;52.450;13.326;2023-05-24T23:55:04;12.57;;;6.40;;
